Meteo

Condividi:

Previsioni per il volo, messo gentilmente a disposizione da www.datameteo.com

per info sul servizio, contattare info@datameteo.it


Metar LIMZ

Available data for LIMZ from the past 2 hours
LEVALDIGI
Metar
LIMZ 171850Z 16006KT 0100 R21/0400N FZFG OVC001 M00/M00 Q1025

18:50 UTC

Wind: 160° 6kt

Visibility: 100 m

Sky: OVC 100 ft

Temp: 0 deg C / 32 deg F

Dewpoint: 0 deg C / 32 deg F

Pressure: 1025 hPa

TAF
TAF LIMZ 171700Z 1718/1818 24005KT 1200 BR OVC010 TEMPO 1718/1808 0400 FG OVC004

Gif Infrarosso


Gif Nuvole


Ultima immagine Infrarosso


Ultima immagine Nuvole


Gif Pioggia

Condividi: